Time;durP1;ratioP1;P1;durP2;ratioP2;P2;SDS_P1;SDS_P2;PMS_P1;PMS_P2;Temp;Humidity;BMP_temperature;BMP_pressure;BME280_temperature;BME280_humidity;BME280_pressure;Samples;Min_cycle;Max_cycle;Signal;HPM_P1;HPM_P2
2022/04/20 00:00:57;;;;;;;;;;;;;;;22.43;31.55;94790.97;2072846;28;1560;-66
2022/04/20 00:01:58;;;;;;;;;;;;;;;22.41;31.53;94789.56;2067801;28;1582;-66
2022/04/20 00:03:03;;;;;;;;;;;;;;;22.38;31.76;94781.97;2060712;28;1125;-67
2022/04/20 00:04:04;;;;;;;;;;;;;;;22.41;31.58;94790.38;2065068;28;1582;-66
2022/04/20 00:05:06;;;;;;;;;;;;;;;22.41;31.67;94786.88;2058430;28;1734;-66
2022/04/20 00:06:08;;;;;;;;;;;;;;;22.39;31.49;94787.09;2058588;28;1014;-65
2022/04/20 00:07:10;;;;;;;;;;;;;;;22.48;31.42;94788.41;2062904;28;1872;-68
2022/04/20 00:08:11;;;;;;;;;;;;;;;22.51;31.62;94785.28;2066562;28;1160;-65
2022/04/20 00:09:13;;;;;;;;;;;;;;;22.58;31.28;94794.00;2066560;28;1742;-66
2022/04/20 00:10:14;;;;;;;;;;;;;;;22.58;31.33;94787.84;2069205;28;1392;-66
2022/04/20 00:11:16;;;;;;;;;;;;;;;22.53;31.46;94788.53;2066364;28;1666;-66
2022/04/20 00:12:18;;;;;;;;;;;;;;;22.49;31.81;94786.56;2066718;28;986;-65
2022/04/20 00:13:19;;;;;;;;;;;;;;;22.51;31.81;94781.78;2061621;28;1127;-66
2022/04/20 00:14:21;;;;;;;;;;;;;;;22.53;31.48;94788.53;2061794;28;1919;-67
2022/04/20 00:15:23;;;;;;;;;;;;;;;22.52;31.59;94783.41;2066336;28;1121;-67
2022/04/20 00:16:25;;;;;;;;;;;;;;;22.52;31.52;94791.44;2065862;28;1386;-67
2022/04/20 00:17:26;;;;;;;;;;;;;;;22.52;31.82;94781.53;2064365;28;1556;-65
2022/04/20 00:18:28;;;;;;;;;;;;;;;22.58;31.56;94785.16;2056794;28;1482;-66
2022/04/20 00:19:29;;;;;;;;;;;;;;;22.58;31.65;94783.31;2062394;28;1284;-66
2022/04/20 00:20:31;;;;;;;;;;;;;;;22.48;31.81;94769.69;2070836;28;1555;-66
2022/04/20 00:21:32;;;;;;;;;;;;;;;22.56;31.96;94788.09;2065810;28;1164;-66
2022/04/20 00:22:34;;;;;;;;;;;;;;;22.56;31.75;94788.09;2065633;28;1289;-66
2022/04/20 00:23:36;;;;;;;;;;;;;;;22.57;31.98;94795.06;2065165;28;1540;-66
2022/04/20 00:24:37;;;;;;;;;;;;;;;22.61;31.77;94791.94;2060773;28;1043;-66
2022/04/20 00:25:39;;;;;;;;;;;;;;;22.56;31.95;94788.09;2060888;28;1896;-66
2022/04/20 00:26:41;;;;;;;;;;;;;;;22.56;31.98;94787.25;2066397;28;1651;-66
2022/04/20 00:27:42;;;;;;;;;;;;;;;22.56;32.15;94785.41;2065381;28;1636;-68
2022/04/20 00:28:44;;;;;;;;;;;;;;;22.57;32.02;94789.72;2066357;28;1310;-66
2022/04/20 00:29:45;;;;;;;;;;;;;;;22.61;31.98;94783.91;2065733;28;1404;-66
2022/04/20 00:30:47;;;;;;;;;;;;;;;22.62;31.86;94788.19;2064318;28;1789;-66
2022/04/20 00:31:48;;;;;;;;;;;;;;;22.56;32.12;94788.09;2065781;28;1742;-66
2022/04/20 00:32:50;;;;;;;;;;;;;;;22.60;32.04;94787.63;2065451;28;1088;-66
2022/04/20 00:33:52;;;;;;;;;;;;;;;22.57;32.23;94788.91;2065573;28;1910;-65
2022/04/20 00:34:53;;;;;;;;;;;;;;;22.57;32.26;94784.34;2065464;28;1442;-66
2022/04/20 00:35:55;;;;;;;;;;;;;;;22.61;32.17;94783.91;2061382;28;1062;-66
2022/04/20 00:36:56;;;;;;;;;;;;;;;22.61;31.83;94784.72;2061240;28;1943;-66
2022/04/20 00:37:58;;;;;;;;;;;;;;;22.57;32.24;94783.53;2065996;28;1590;-67
2022/04/20 00:39:00;;;;;;;;;;;;;;;22.54;32.36;94784.81;2066162;28;1745;-66
2022/04/20 00:40:04;;;;;;;;;;;;;;;22.58;32.10;94775.25;2065916;28;1177;-66
2022/04/20 00:41:06;;;;;;;;;;;;;;;22.57;32.16;94784.34;2066439;28;1048;-67
2022/04/20 00:42:08;;;;;;;;;;;;;;;22.60;32.07;94782.28;2065924;28;1541;-67
2022/04/20 00:43:10;;;;;;;;;;;;;;;22.61;32.13;94787.38;2057023;28;1720;-67
2022/04/20 00:44:12;;;;;;;;;;;;;;;22.58;32.21;94785.97;2057199;28;1702;-66
2022/04/20 00:45:13;;;;;;;;;;;;;;;22.61;32.39;94783.91;2066271;28;1177;-66
2022/04/20 00:46:15;;;;;;;;;;;;;;;22.57;32.29;94791.59;2066449;28;1098;-67
2022/04/20 00:47:17;;;;;;;;;;;;;;;22.57;32.24;94783.53;2061144;28;1835;-66
2022/04/20 00:48:20;;;;;;;;;;;;;;;22.57;32.46;94781.69;2061826;28;1098;-66
2022/04/20 00:49:22;;;;;;;;;;;;;;;22.56;32.35;94788.09;2065625;28;1928;-65
2022/04/20 00:50:24;;;;;;;;;;;;;;;22.53;32.29;94777.81;2066396;28;1577;-66
2022/04/20 00:51:25;;;;;;;;;;;;;;;22.52;32.36;94775.38;2064765;28;1866;-66
2022/04/20 00:52:27;;;;;;;;;;;;;;;22.53;32.21;94782.34;2064853;28;1508;-66
2022/04/20 00:53:48;;;;;;;;;;;;;;;22.53;32.39;94783.16;2065760;28;1926;-67
2022/04/20 00:54:50;;;;;;;;;;;;;;;22.56;32.36;94771.19;2065168;28;1609;-67
2022/04/20 00:55:51;;;;;;;;;;;;;;;22.60;32.26;94774.25;2057014;28;1480;-64
2022/04/20 00:56:53;;;;;;;;;;;;;;;22.66;32.23;94776.81;2056996;28;1473;-64
2022/04/20 00:57:54;;;;;;;;;;;;;;;22.61;31.76;94770.50;2064912;28;1896;-66
2022/04/20 00:58:57;;;;;;;;;;;;;;;22.63;31.97;94776.47;2059183;28;1263;-66
2022/04/20 01:00:03;;;;;;;;;;;;;;;22.61;32.26;94776.66;2064602;28;1280;-66
2022/04/20 01:01:04;;;;;;;;;;;;;;;22.58;32.11;94775.25;2064788;28;1574;-67
2022/04/20 01:02:06;;;;;;;;;;;;;;;22.50;32.58;94772.09;2065250;28;1060;-68
2022/04/20 01:03:08;;;;;;;;;;;;;;;22.45;32.56;94772.81;2065230;28;1655;-67
2022/04/20 01:04:10;;;;;;;;;;;;;;;22.43;32.79;94772.22;2066047;28;1044;-67
2022/04/20 01:05:13;;;;;;;;;;;;;;;22.41;32.54;94768.94;2065977;28;1180;-66
2022/04/20 01:06:15;;;;;;;;;;;;;;;22.41;32.74;94768.13;2066417;28;1632;-66
2022/04/20 01:07:17;;;;;;;;;;;;;;;22.39;32.82;94763.00;2055732;28;1513;-66
2022/04/20 01:08:18;;;;;;;;;;;;;;;22.38;32.71;94764.06;2057521;28;1097;-66
2022/04/20 01:09:20;;;;;;;;;;;;;;;22.39;32.63;94778.25;2065148;28;1562;-66
2022/04/20 01:10:21;;;;;;;;;;;;;;;22.37;32.59;94769.63;2057822;28;1804;-65
2022/04/20 01:11:23;;;;;;;;;;;;;;;22.37;32.86;94773.13;2064728;28;1946;-69
2022/04/20 01:12:24;;;;;;;;;;;;;;;22.34;32.95;94765.56;2065544;28;1571;-67
2022/04/20 01:13:26;;;;;;;;;;;;;;;22.34;32.88;94768.25;2066015;28;1242;-67
2022/04/20 01:14:28;;;;;;;;;;;;;;;22.36;32.88;94771.50;2065654;28;1903;-67
2022/04/20 01:15:30;;;;;;;;;;;;;;;22.36;32.83;94768.81;2065907;28;1105;-66
2022/04/20 01:16:31;;;;;;;;;;;;;;;22.39;32.78;94765.69;2065793;28;1156;-68
2022/04/20 01:17:33;;;;;;;;;;;;;;;22.39;32.79;94760.31;2066454;28;1106;-65
2022/04/20 01:18:40;;;;;;;;;;;;;;;22.43;32.70;94766.88;2066128;28;1181;-65
2022/04/20 01:19:42;;;;;;;;;;;;;;;22.40;33.02;94770.00;2072515;28;1291;-64
2022/04/20 01:20:43;;;;;;;;;;;;;;;22.41;33.24;94768.13;2071458;28;1555;-65
2022/04/20 01:21:45;;;;;;;;;;;;;;;22.38;32.94;94764.06;2048525;28;1040;-64
2022/04/20 01:22:47;;;;;;;;;;;;;;;22.46;33.15;94760.25;2057235;28;1069;-62
2022/04/20 01:23:49;;;;;;;;;;;;;;;22.49;32.91;94765.94;2065693;28;1213;-63
2022/04/20 01:24:51;;;;;;;;;;;;;;;22.56;32.87;94772.03;2065919;28;1049;-63
2022/04/20 01:25:52;;;;;;;;;;;;;;;22.58;32.71;94775.25;2065764;28;1972;-62
2022/04/20 01:26:55;;;;;;;;;;;;;;;22.60;32.65;94769.69;2064935;28;1470;-63
2022/04/20 01:27:57;;;;;;;;;;;;;;;22.61;32.75;94768.63;2065990;28;1100;-62
2022/04/20 01:29:01;;;;;;;;;;;;;;;22.60;32.91;94760.84;2065703;28;1168;-61
2022/04/20 01:30:03;;;;;;;;;;;;;;;22.66;32.71;94770.63;2065864;28;1895;-62
2022/04/20 01:31:05;;;;;;;;;;;;;;;22.66;32.65;94781.34;2064912;28;1475;-62
2022/04/20 01:32:07;;;;;;;;;;;;;;;22.64;32.79;94783.44;2066440;28;1730;-62
2022/04/20 01:33:08;;;;;;;;;;;;;;;22.65;32.59;94785.91;2056429;28;1781;-63
2022/04/20 01:34:10;;;;;;;;;;;;;;;22.64;33.03;94788.78;2065395;28;1106;-62
2022/04/20 01:35:11;;;;;;;;;;;;;;;22.66;32.79;94786.72;2065832;28;2098;-63
2022/04/20 01:36:13;;;;;;;;;;;;;;;22.65;32.89;94785.06;2065610;28;1043;-63
2022/04/20 01:37:15;;;;;;;;;;;;;;;22.68;32.90;94784.59;2057313;28;1065;-61
2022/04/20 01:38:16;;;;;;;;;;;;;;;22.63;32.80;94787.16;2057038;28;1521;-64
2022/04/20 01:39:18;;;;;;;;;;;;;;;22.54;33.10;94779.47;2064827;28;1173;-64
2022/04/20 01:40:19;;;;;;;;;;;;;;;22.55;33.08;94780.28;2065368;28;1898;-64
2022/04/20 01:41:21;;;;;;;;;;;;;;;22.50;33.09;94785.50;2057078;28;1513;-65
2022/04/20 01:42:22;;;;;;;;;;;;;;;22.55;33.08;94790.97;2056344;28;1776;-65
2022/04/20 01:43:24;;;;;;;;;;;;;;;22.49;33.35;94782.00;2057616;28;1117;-67
2022/04/20 01:44:26;;;;;;;;;;;;;;;22.49;33.36;94787.38;2048938;28;1117;-65
2022/04/20 01:45:27;;;;;;;;;;;;;;;22.50;33.51;94782.81;2056599;28;1700;-65
2022/04/20 01:46:29;;;;;;;;;;;;;;;22.49;33.39;94771.31;2063747;28;1648;-65
2022/04/20 01:47:31;;;;;;;;;;;;;;;22.48;33.57;94784.91;2065737;28;1118;-66
2022/04/20 01:48:32;;;;;;;;;;;;;;;22.52;33.44;94783.41;2065832;28;1089;-67
2022/04/20 01:49:34;;;;;;;;;;;;;;;22.51;33.59;94785.28;2065716;28;1021;-65
2022/04/20 01:51:46;;;;;;;;;;;;;;;22.47;33.64;94781.41;2065877;28;1065;-67
2022/04/20 01:51:57;;;;;;;;;;;;;;;22.45;33.75;94783.53;2071074;28;1662;-66
2022/04/20 01:52:58;;;;;;;;;;;;;;;22.44;33.78;94781.06;2057506;28;1864;-65
2022/04/20 01:54:00;;;;;;;;;;;;;;;22.43;33.93;94777.56;2048956;28;1077;-64
2022/04/20 01:55:01;;;;;;;;;;;;;;;22.45;33.92;94777.31;2055408;28;1969;-63
2022/04/20 01:56:06;;;;;;;;;;;;;;;22.46;33.65;94787.00;2056969;28;1736;-62
2022/04/20 01:57:08;;;;;;;;;;;;;;;22.53;33.83;94793.06;2065499;28;1148;-62
2022/04/20 01:58:09;;;;;;;;;;;;;;;22.53;33.57;94783.16;2065419;28;1858;-63
2022/04/20 01:59:11;;;;;;;;;;;;;;;22.50;33.59;94764.06;2065621;28;1705;-63
2022/04/20 02:00:13;;;;;;;;;;;;;;;22.54;33.55;94790.19;2065146;28;1529;-64
2022/04/20 02:02:34;;;;;;;;;;;;;;;22.63;33.46;94795.19;2067638;28;1650;-65
2022/04/20 02:03:36;;;;;;;;;;;;;;;22.62;33.94;94796.22;2056893;28;1145;-63
2022/04/20 02:04:38;;;;;;;;;;;;;;;22.63;33.64;94792.53;2048922;28;1182;-64
2022/04/20 02:05:40;;;;;;;;;;;;;;;22.61;33.74;94792.75;2054219;28;1597;-62
2022/04/20 02:06:41;;;;;;;;;;;;;;;22.58;33.79;94791.34;2052364;28;1029;-63
2022/04/20 02:07:44;;;;;;;;;;;;;;;22.61;33.76;94800.78;2052274;28;1119;-61
2022/04/20 02:08:45;;;;;;;;;;;;;;;22.61;33.80;94803.44;2059040;28;1679;-64
2022/04/20 02:09:47;;;;;;;;;;;;;;;22.62;33.59;94797.03;2064462;28;1503;-63
2022/04/20 02:10:48;;;;;;;;;;;;;;;22.67;33.52;94799.03;2062446;28;1872;-63
2022/04/20 02:11:50;;;;;;;;;;;;;;;22.66;33.39;94805.44;2061962;28;1758;-63
2022/04/20 02:12:51;;;;;;;;;;;;;;;22.64;33.66;94803.00;2065655;28;1014;-64
2022/04/20 02:13:53;;;;;;;;;;;;;;;22.61;33.82;94806.13;2065529;28;1356;-64
2022/04/20 02:14:55;;;;;;;;;;;;;;;22.62;33.69;94796.22;2059176;28;1911;-63
2022/04/20 02:15:56;;;;;;;;;;;;;;;22.65;33.51;94801.13;2056475;28;1109;-63
2022/04/20 02:16:58;;;;;;;;;;;;;;;22.65;33.69;94795.78;2062280;28;1475;-63
2022/04/20 02:18:00;;;;;;;;;;;;;;;22.64;33.69;94794.97;2060510;28;1169;-63
2022/04/20 02:19:02;;;;;;;;;;;;;;;22.62;33.58;94794.34;2060483;28;1881;-63
2022/04/20 02:20:04;;;;;;;;;;;;;;;22.61;33.82;94786.56;2073889;28;1161;-63
2022/04/20 02:21:05;;;;;;;;;;;;;;;22.65;33.62;94796.59;2073539;28;1106;-62
2022/04/20 02:22:07;;;;;;;;;;;;;;;22.65;33.52;94785.91;2073832;28;1046;-62
2022/04/20 02:23:08;;;;;;;;;;;;;;;22.65;33.54;94785.91;2071524;28;1546;-62
2022/04/20 02:24:10;;;;;;;;;;;;;;;22.66;33.50;94784.03;2065682;28;1039;-63
2022/04/20 02:25:12;;;;;;;;;;;;;;;22.67;33.67;94780.28;2064655;28;1541;-63
2022/04/20 02:26:13;;;;;;;;;;;;;;;22.64;33.75;94780.75;2065483;28;1819;-63
2022/04/20 02:27:15;;;;;;;;;;;;;;;22.62;33.72;94780.97;2065677;28;1069;-63
2022/04/20 02:28:18;;;;;;;;;;;;;;;22.65;33.67;94782.38;2065430;28;1114;-67
2022/04/20 02:29:19;;;;;;;;;;;;;;;22.64;33.68;94781.56;2061029;28;1007;-67
2022/04/20 02:30:21;;;;;;;;;;;;;;;22.64;33.69;94781.56;2060752;28;1605;-70
2022/04/20 02:31:22;;;;;;;;;;;;;;;22.66;33.49;94786.72;2065223;28;1908;-68
2022/04/20 02:32:24;;;;;;;;;;;;;;;22.66;33.60;94776.00;2065653;28;1088;-68
2022/04/20 02:33:26;;;;;;;;;;;;;;;22.65;33.85;94779.69;2065673;28;1070;-67
2022/04/20 02:34:27;;;;;;;;;;;;;;;22.58;33.71;94769.91;2065646;28;1086;-67
2022/04/20 02:35:30;;;;;;;;;;;;;;;22.64;33.88;94778.06;2065184;28;1975;-67
2022/04/20 02:36:32;;;;;;;;;;;;;;;22.65;33.61;94777.88;2063976;28;1509;-68
2022/04/20 02:37:34;;;;;;;;;;;;;;;22.63;33.74;94787.16;2064964;28;1053;-68
2022/04/20 02:38:35;;;;;;;;;;;;;;;22.57;34.04;94775.50;2063880;28;1503;-67
2022/04/20 02:39:37;;;;;;;;;;;;;;;22.58;33.95;94779.81;2056680;28;1123;-67
2022/04/20 02:40:39;;;;;;;;;;;;;;;22.62;33.94;94777.47;2052248;28;1777;-68
2022/04/20 02:41:42;;;;;;;;;;;;;;;22.62;33.63;94774.81;2060751;28;1192;-63
2022/04/20 02:42:45;;;;;;;;;;;;;;;22.58;33.94;94777.94;2065402;28;1038;-63
2022/04/20 02:43:48;;;;;;;;;;;;;;;22.58;34.04;94775.25;2064234;28;1456;-63
2022/04/20 02:44:49;;;;;;;;;;;;;;;22.58;33.88;94772.59;2065428;28;1164;-62
2022/04/20 02:45:51;;;;;;;;;;;;;;;22.58;34.02;94775.25;2065079;28;1050;-64
2022/04/20 02:46:52;;;;;;;;;;;;;;;22.62;33.80;94774.81;2065554;28;998;-64
2022/04/20 02:47:54;;;;;;;;;;;;;;;22.60;33.99;94771.56;2065644;28;997;-62
2022/04/20 02:48:56;;;;;;;;;;;;;;;22.60;34.00;94780.41;2056229;28;1402;-62
2022/04/20 02:49:57;;;;;;;;;;;;;;;22.62;34.07;94780.16;2042044;28;1521;-63
2022/04/20 02:50:59;;;;;;;;;;;;;;;22.61;33.96;94776.66;2048642;28;1840;-62
2022/04/20 02:52:00;;;;;;;;;;;;;;;22.58;34.08;94769.91;2044507;28;1106;-62
2022/04/20 02:53:02;;;;;;;;;;;;;;;22.61;34.08;94775.88;2052096;28;1118;-64
2022/04/20 02:54:04;;;;;;;;;;;;;;;22.58;34.15;94769.91;2057523;28;1110;-63
2022/04/20 02:55:05;;;;;;;;;;;;;;;22.57;34.15;94776.31;2057529;28;1906;-63
2022/04/20 02:56:07;;;;;;;;;;;;;;;22.55;34.19;94781.09;2057201;28;1761;-62
2022/04/20 02:57:08;;;;;;;;;;;;;;;22.56;34.21;94782.75;2057548;28;1037;-63
2022/04/20 02:58:10;;;;;;;;;;;;;;;22.57;33.92;94779.00;2052804;28;1878;-64
2022/04/20 02:59:12;;;;;;;;;;;;;;;22.58;34.26;94783.31;2054631;28;1450;-62
2022/04/20 03:00:14;;;;;;;;;;;;;;;22.59;34.17;94776.06;2065060;28;1563;-62
2022/04/20 03:01:16;;;;;;;;;;;;;;;22.60;34.10;94783.09;2065031;28;1204;-62
2022/04/20 03:02:18;;;;;;;;;;;;;;;22.61;33.98;94778.53;2065383;28;1101;-63
2022/04/20 03:03:19;;;;;;;;;;;;;;;22.63;34.11;94781.81;2061075;28;1255;-63
2022/04/20 03:04:21;;;;;;;;;;;;;;;22.63;34.19;94787.16;2060575;28;1184;-62
2022/04/20 03:05:22;;;;;;;;;;;;;;;22.69;33.97;94792.41;2056372;28;1899;-61
2022/04/20 03:06:24;;;;;;;;;;;;;;;22.72;33.75;94791.16;2056580;28;1875;-63
2022/04/20 03:07:27;;;;;;;;;;;;;;;22.71;34.21;94789.53;2064946;28;1493;-62
2022/04/20 03:08:29;;;;;;;;;;;;;;;22.73;34.13;94787.44;2065378;28;1101;-62
2022/04/20 03:09:30;;;;;;;;;;;;;;;22.73;34.04;94782.06;2065497;28;1085;-62
2022/04/20 03:10:32;;;;;;;;;;;;;;;22.77;33.89;94791.31;2065320;28;1400;-62
2022/04/20 03:11:34;;;;;;;;;;;;;;;21.49;24.31;94793.16;2065215;28;1794;-66
2022/04/20 03:12:35;;;;;;;;;;;;;;;18.46;27.08;94790.69;2068335;28;1919;-66
2022/04/20 03:13:37;;;;;;;;;;;;;;;16.87;29.11;94802.31;2065155;28;1235;-65
2022/04/20 03:14:39;;;;;;;;;;;;;;;15.75;29.75;94804.66;2061503;28;1777;-66
2022/04/20 03:15:40;;;;;;;;;;;;;;;14.90;30.91;94803.34;2060263;28;1902;-66
2022/04/20 03:16:42;;;;;;;;;;;;;;;14.28;31.48;94802.56;2065537;28;1272;-65
2022/04/20 03:17:44;;;;;;;;;;;;;;;14.26;31.45;94799.25;2064528;28;1610;-65
2022/04/20 03:18:45;;;;;;;;;;;;;;;13.78;32.16;94808.34;2065430;28;1068;-65
2022/04/20 03:19:47;;;;;;;;;;;;;;;13.55;32.85;94809.13;2072208;28;1158;-65
2022/04/20 03:20:49;;;;;;;;;;;;;;;13.77;33.40;94811.97;2059488;28;1868;-65
2022/04/20 03:21:51;;;;;;;;;;;;;;;14.05;32.41;94818.41;2057439;28;1075;-66
2022/04/20 03:22:52;;;;;;;;;;;;;;;13.84;32.40;94810.28;2057525;28;1530;-64
2022/04/20 03:23:54;;;;;;;;;;;;;;;13.83;32.78;94813.94;2058331;28;1196;-64
2022/04/20 03:24:55;;;;;;;;;;;;;;;14.20;32.14;94809.72;2057635;28;1406;-64
2022/04/20 03:25:57;;;;;;;;;;;;;;;14.15;32.05;94818.19;2056000;28;1127;-64
2022/04/20 03:26:58;;;;;;;;;;;;;;;14.09;31.99;94803.03;2051914;28;1531;-66
2022/04/20 03:28:00;;;;;;;;;;;;;;;13.77;32.61;94809.31;2058038;28;1890;-66
2022/04/20 03:29:02;;;;;;;;;;;;;;;13.64;32.88;94809.91;2066342;28;1625;-66
2022/04/20 03:30:03;;;;;;;;;;;;;;;13.47;32.97;94808.31;2065767;28;1156;-67
2022/04/20 03:31:05;;;;;;;;;;;;;;;13.48;33.10;94812.59;2060388;28;1721;-66
2022/04/20 03:32:15;;;;;;;;;;;;;;;13.36;33.10;94814.78;2066921;28;1958;-65
2022/04/20 03:33:16;;;;;;;;;;;;;;;13.52;33.00;94814.75;2065106;28;1861;-66
2022/04/20 03:34:18;;;;;;;;;;;;;;;13.49;32.63;94796.59;2065724;28;1667;-66
2022/04/20 03:35:19;;;;;;;;;;;;;;;13.11;33.38;94793.75;2066218;28;1169;-66
2022/04/20 03:36:21;;;;;;;;;;;;;;;13.32;33.21;94800.31;2065992;28;1892;-65
2022/04/20 03:37:23;;;;;;;;;;;;;;;13.50;33.07;94806.16;2060590;28;1514;-66
2022/04/20 03:38:24;;;;;;;;;;;;;;;13.77;32.22;94801.41;2059332;28;1511;-69
2022/04/20 03:39:26;;;;;;;;;;;;;;;13.45;32.67;94803.19;2057322;28;1182;-66
2022/04/20 03:40:27;;;;;;;;;;;;;;;13.40;32.84;94793.16;2058441;28;1703;-67
2022/04/20 03:41:29;;;;;;;;;;;;;;;13.44;33.01;94795.47;2067174;28;1535;-66
2022/04/20 03:42:30;;;;;;;;;;;;;;;13.20;32.85;94794.56;2058170;28;1188;-65
2022/04/20 03:43:32;;;;;;;;;;;;;;;13.17;32.94;94790.47;2058456;28;1018;-69
2022/04/20 03:44:34;;;;;;;;;;;;;;;13.44;32.76;94798.91;2066537;28;1061;-63
2022/04/20 03:45:35;;;;;;;;;;;;;;;13.26;32.87;94800.97;2066784;28;1097;-63
2022/04/20 03:46:37;;;;;;;;;;;;;;;13.17;32.75;94793.09;2066533;28;1246;-66
2022/04/20 03:47:39;;;;;;;;;;;;;;;13.20;33.14;94791.91;2066855;28;1061;-64
2022/04/20 03:48:40;;;;;;;;;;;;;;;13.27;32.80;94792.88;2064159;28;1169;-68
2022/04/20 03:49:42;;;;;;;;;;;;;;;13.17;32.96;94792.25;2051322;28;1512;-64
2022/04/20 03:50:43;;;;;;;;;;;;;;;13.18;33.56;94788.66;2057719;28;1192;-66
2022/04/20 03:51:46;;;;;;;;;;;;;;;13.41;33.70;94799.25;2057495;28;1169;-63
2022/04/20 03:52:48;;;;;;;;;;;;;;;13.55;32.69;94798.56;2058352;28;1073;-63
2022/04/20 03:53:49;;;;;;;;;;;;;;;13.32;32.76;94795.03;2066605;28;1719;-64
2022/04/20 03:54:51;;;;;;;;;;;;;;;13.16;33.07;94794.06;2063762;28;1894;-64
2022/04/20 03:55:52;;;;;;;;;;;;;;;13.07;33.24;94802.19;2066658;28;1883;-64
2022/04/20 03:57:03;;;;;;;;;;;;;;;13.00;33.62;94799.41;2066375;28;1061;-65
2022/04/20 03:58:05;;;;;;;;;;;;;;;12.95;33.44;94799.09;2064960;28;1536;-64
2022/04/20 03:59:06;;;;;;;;;;;;;;;12.81;33.74;94791.91;2057308;28;1489;-68
2022/04/20 04:00:08;;;;;;;;;;;;;;;12.75;33.84;94793.38;2059675;28;1628;-64
2022/04/20 04:01:10;;;;;;;;;;;;;;;12.72;34.07;94789.28;2062598;28;1564;-64
2022/04/20 04:02:12;;;;;;;;;;;;;;;12.84;33.74;94791.56;2066636;28;1137;-63
2022/04/20 04:03:14;;;;;;;;;;;;;;;12.76;33.88;94794.22;2066688;28;1070;-63
2022/04/20 04:04:16;;;;;;;;;;;;;;;12.78;33.79;94797.50;2057713;28;1226;-65
2022/04/20 04:05:18;;;;;;;;;;;;;;;12.68;33.96;94798.50;2053689;28;1385;-64
2022/04/20 04:06:19;;;;;;;;;;;;;;;12.65;34.07;94796.19;2062947;28;1586;-63
2022/04/20 04:07:21;;;;;;;;;;;;;;;12.57;34.11;94798.84;2064864;28;1582;-64
2022/04/20 04:08:22;;;;;;;;;;;;;;;12.48;34.69;94790.13;2060566;28;1423;-64
2022/04/20 04:09:24;;;;;;;;;;;;;;;13.39;34.45;94793.31;2065594;28;1308;-69
2022/04/20 04:10:25;;;;;;;;;;;;;;;14.26;31.98;94780.78;2065144;28;1286;-65
2022/04/20 04:11:27;;;;;;;;;;;;;;;14.18;31.82;94790.59;2063154;28;1497;-69
2022/04/20 04:12:29;;;;;;;;;;;;;;;12.94;33.66;94781.63;2060696;28;1122;-68
2022/04/20 04:13:30;;;;;;;;;;;;;;;12.66;34.52;94782.03;2055555;28;1430;-66
2022/04/20 04:14:36;;;;;;;;;;;;;;;12.08;35.64;94777.75;2057176;28;1476;-66
2022/04/20 04:15:38;;;;;;;;;;;;;;;12.54;35.37;94772.00;2058481;28;1588;-64
2022/04/20 04:16:40;;;;;;;;;;;;;;;13.77;34.17;94773.22;2057239;28;1902;-66
2022/04/20 04:17:42;;;;;;;;;;;;;;;14.82;32.28;94767.22;2057876;28;1269;-65
2022/04/20 04:18:43;;;;;;;;;;;;;;;15.54;31.32;94771.03;2062362;28;1564;-65
2022/04/20 04:19:46;;;;;;;;;;;;;;;16.08;30.56;94771.44;2049581;29;1053;-65
2022/04/20 04:20:48;;;;;;;;;;;;;;;16.50;30.28;94774.22;2050027;28;1113;-65
2022/04/20 04:21:51;;;;;;;;;;;;;;;16.82;29.98;94769.41;2049247;29;1193;-65
2022/04/20 04:22:52;;;;;;;;;;;;;;;17.07;29.25;94775.91;2045474;28;1189;-71
2022/04/20 04:23:54;;;;;;;;;;;;;;;17.44;29.18;94773.81;2051503;28;1402;-66
2022/04/20 04:24:57;;;;;;;;;;;;;;;17.66;29.35;94766.56;2057424;28;1594;-68
2022/04/20 04:25:58;;;;;;;;;;;;;;;17.91;28.80;94772.19;2057735;28;1652;-75
2022/04/20 04:27:00;;;;;;;;;;;;;;;18.09;29.46;94761.78;2049213;28;1235;-65
2022/04/20 04:28:02;;;;;;;;;;;;;;;18.17;29.43;94763.44;2048121;28;1611;-67
2022/04/20 04:29:04;;;;;;;;;;;;;;;18.21;29.55;94767.34;2056487;28;1552;-65
2022/04/20 04:30:05;;;;;;;;;;;;;;;18.23;29.74;94767.13;2049897;28;1034;-65
2022/04/20 04:31:07;;;;;;;;;;;;;;;18.25;29.79;94765.09;2061697;28;1557;-70
2022/04/20 04:32:09;;;;;;;;;;;;;;;18.27;29.85;94763.06;2054432;28;1629;-68
2022/04/20 04:33:11;;;;;;;;;;;;;;;18.32;29.98;94760.59;2058690;28;1378;-66
2022/04/20 04:34:12;;;;;;;;;;;;;;;18.35;29.79;94757.53;2052912;28;972;-65
2022/04/20 04:35:14;;;;;;;;;;;;;;;18.39;29.76;94756.09;2044499;28;1162;-64
2022/04/20 04:36:15;;;;;;;;;;;;;;;18.42;29.81;94750.38;2051745;28;1914;-65
2022/04/20 04:37:17;;;;;;;;;;;;;;;18.45;29.85;94749.97;2055741;28;1410;-65
2022/04/20 04:38:19;;;;;;;;;;;;;;;18.49;29.83;94751.19;2057604;28;1444;-65
2022/04/20 04:39:21;;;;;;;;;;;;;;;18.52;29.87;94745.47;2057074;28;1521;-65
2022/04/20 04:40:22;;;;;;;;;;;;;;;18.57;29.88;94749.34;2057330;28;1561;-64
2022/04/20 04:41:24;;;;;;;;;;;;;;;18.60;29.77;94752.41;2057562;28;1184;-65
2022/04/20 04:42:26;;;;;;;;;;;;;;;18.64;29.69;94751.00;2057702;28;1165;-65
2022/04/20 04:43:27;;;;;;;;;;;;;;;18.68;29.82;94743.44;2057519;28;1181;-68
2022/04/20 04:44:29;;;;;;;;;;;;;;;18.73;29.67;94744.47;2057608;28;1142;-65
2022/04/20 04:49:31;;;;;;;;;;;;;;;18.92;29.72;94757.94;2058114;28;1553;-64
2022/04/20 04:50:33;;;;;;;;;;;;;;;18.96;29.67;94753.84;2057593;28;1537;-65
2022/04/20 04:51:35;;;;;;;;;;;;;;;19.00;29.67;94757.72;2057534;28;1085;-65
2022/04/20 04:52:37;;;;;;;;;;;;;;;19.02;29.73;94754.88;2049400;29;1274;-65
2022/04/20 04:53:39;;;;;;;;;;;;;;;19.05;29.69;94767.75;2049973;28;1687;-64
2022/04/20 04:54:44;;;;;;;;;;;;;;;19.08;29.57;94770.00;2058348;28;1035;-66
2022/04/20 04:55:46;;;;;;;;;;;;;;;19.10;29.66;94773.28;2057819;28;998;-65
2022/04/20 04:56:47;;;;;;;;;;;;;;;19.13;29.56;94765.69;2053294;28;1938;-64
2022/04/20 04:57:49;;;;;;;;;;;;;;;19.15;29.53;94771.63;2053278;28;1128;-64
2022/04/20 04:58:50;;;;;;;;;;;;;;;19.18;29.67;94775.72;2057782;28;1164;-64
2022/04/20 04:59:52;;;;;;;;;;;;;;;19.20;29.54;94777.13;2058286;28;1044;-64
2022/04/20 05:00:55;;;;;;;;;;;;;;;19.22;29.61;94771.59;2049476;29;1263;-64
2022/04/20 05:01:56;;;;;;;;;;;;;;;19.23;29.52;94767.91;2049848;28;1110;-66
2022/04/20 05:02:58;;;;;;;;;;;;;;;19.24;29.65;94763.44;2058027;28;1133;-64
2022/04/20 05:04:00;;;;;;;;;;;;;;;19.25;29.35;94757.88;2058242;28;1017;-65
2022/04/20 05:05:01;;;;;;;;;;;;;;;19.27;29.55;94768.34;2057948;28;1007;-65
2022/04/20 05:06:04;;;;;;;;;;;;;;;19.27;29.50;94761.16;2057976;28;1080;-64
2022/04/20 05:07:05;;;;;;;;;;;;;;;19.32;29.56;94771.16;2058186;28;1184;-64
2022/04/20 05:08:07;;;;;;;;;;;;;;;19.35;29.48;94776.06;2053714;28;1038;-65
2022/04/20 05:09:09;;;;;;;;;;;;;;;19.36;29.56;94767.06;2053315;28;1193;-64
2022/04/20 05:10:10;;;;;;;;;;;;;;;19.38;29.44;94763.16;2049600;28;1323;-64
2022/04/20 05:11:12;;;;;;;;;;;;;;;19.39;29.31;94770.13;2049726;28;998;-65
2022/04/20 05:12:13;;;;;;;;;;;;;;;19.40;29.33;94763.75;2049226;29;1094;-64
2022/04/20 05:13:16;;;;;;;;;;;;;;;19.42;29.31;94767.03;2049131;28;1109;-64
2022/04/20 05:14:17;;;;;;;;;;;;;;;19.44;29.34;94765.00;2054421;28;1160;-64
2022/04/20 05:15:19;;;;;;;;;;;;;;;19.44;29.61;94764.19;2057456;28;1204;-64
2022/04/20 05:16:21;;;;;;;;;;;;;;;19.48;29.51;94764.56;2057081;28;1907;-64
2022/04/20 05:17:27;;;;;;;;;;;;;;;19.48;29.47;94765.38;2058291;28;1025;-64
2022/04/20 05:18:28;;;;;;;;;;;;;;;19.50;29.41;94767.84;2065937;28;1069;-64
2022/04/20 05:19:30;;;;;;;;;;;;;;;19.50;29.47;94767.84;2065818;28;2083;-64
2022/04/20 05:20:32;;;;;;;;;;;;;;;19.50;29.40;94766.00;2068923;28;1113;-65
2022/04/20 05:21:33;;;;;;;;;;;;;;;19.52;29.36;94769.28;2074046;28;1160;-65
2022/04/20 05:22:36;;;;;;;;;;;;;;;19.54;29.45;94777.06;2074152;28;1149;-65
2022/04/20 05:23:38;;;;;;;;;;;;;;;19.56;29.38;94780.34;2074334;28;1037;-66
2022/04/20 05:24:39;;;;;;;;;;;;;;;19.56;29.38;94783.84;2073937;28;1121;-66
2022/04/20 05:25:41;;;;;;;;;;;;;;;19.58;29.37;94776.44;2074218;28;1465;-64
2022/04/20 05:26:43;;;;;;;;;;;;;;;19.58;29.47;94780.97;2073985;28;1098;-65
2022/04/20 05:27:44;;;;;;;;;;;;;;;19.59;29.56;94777.25;2065370;28;1532;-64
2022/04/20 05:28:46;;;;;;;;;;;;;;;19.60;29.54;94782.38;2065027;28;1035;-64
2022/04/20 05:29:48;;;;;;;;;;;;;;;19.62;29.54;94796.31;2074233;28;1033;-65
2022/04/20 05:30:49;;;;;;;;;;;;;;;19.63;29.44;94795.31;2061631;28;1016;-65
2022/04/20 05:31:53;;;;;;;;;;;;;;;19.64;29.59;94796.13;2052415;28;1174;-64
2022/04/20 05:32:54;;;;;;;;;;;;;;;19.64;29.43;94791.59;2065212;28;1056;-64